sensor_id;sensor_type;location;lat;lon;timestamp;temperature;humidity
78886;DHT22;68269;52.514;5.722;2023-05-16T00:01:14;11.20;65.40
78886;DHT22;68269;52.514;5.722;2023-05-16T00:03:43;11.20;65.30
78886;DHT22;68269;52.514;5.722;2023-05-16T00:06:13;11.10;65.30
78886;DHT22;68269;52.514;5.722;2023-05-16T00:08:42;11.10;65.30
78886;DHT22;68269;52.514;5.722;2023-05-16T00:11:15;11.10;65.30
78886;DHT22;68269;52.514;5.722;2023-05-16T00:13:44;11.10;65.30
78886;DHT22;68269;52.514;5.722;2023-05-16T00:16:14;11.10;65.30
78886;DHT22;68269;52.514;5.722;2023-05-16T00:18:43;11.10;65.30
78886;DHT22;68269;52.514;5.722;2023-05-16T00:21:12;11.10;65.30
78886;DHT22;68269;52.514;5.722;2023-05-16T00:23:41;11.00;65.30
78886;DHT22;68269;52.514;5.722;2023-05-16T00:26:13;11.00;65.40
78886;DHT22;68269;52.514;5.722;2023-05-16T00:28:43;11.00;65.40
78886;DHT22;68269;52.514;5.722;2023-05-16T00:31:13;10.90;65.40
78886;DHT22;68269;52.514;5.722;2023-05-16T00:33:42;10.90;65.30
78886;DHT22;68269;52.514;5.722;2023-05-16T00:36:11;10.90;65.40
78886;DHT22;68269;52.514;5.722;2023-05-16T00:38:41;10.90;65.30
78886;DHT22;68269;52.514;5.722;2023-05-16T00:41:13;10.90;65.30
78886;DHT22;68269;52.514;5.722;2023-05-16T00:43:42;10.90;65.20
78886;DHT22;68269;52.514;5.722;2023-05-16T00:46:11;10.80;65.30
78886;DHT22;68269;52.514;5.722;2023-05-16T00:48:41;10.80;65.20
78886;DHT22;68269;52.514;5.722;2023-05-16T00:51:10;10.80;65.20
78886;DHT22;68269;52.514;5.722;2023-05-16T00:53:40;10.80;65.20
78886;DHT22;68269;52.514;5.722;2023-05-16T00:56:09;10.80;65.20
78886;DHT22;68269;52.514;5.722;2023-05-16T00:58:41;10.70;65.10
78886;DHT22;68269;52.514;5.722;2023-05-16T01:01:11;10.80;65.10
78886;DHT22;68269;52.514;5.722;2023-05-16T01:03:41;10.70;65.10
78886;DHT22;68269;52.514;5.722;2023-05-16T01:06:12;10.70;65.10
78886;DHT22;68269;52.514;5.722;2023-05-16T01:08:41;10.70;65.10
78886;DHT22;68269;52.514;5.722;2023-05-16T01:11:15;10.70;65.10
78886;DHT22;68269;52.514;5.722;2023-05-16T01:13:59;10.70;65.10
78886;DHT22;68269;52.514;5.722;2023-05-16T01:16:36;10.60;65.10
78886;DHT22;68269;52.514;5.722;2023-05-16T01:19:13;10.60;65.10
78886;DHT22;68269;52.514;5.722;2023-05-16T01:21:48;10.60;65.10
78886;DHT22;68269;52.514;5.722;2023-05-16T01:24:29;10.60;65.10
78886;DHT22;68269;52.514;5.722;2023-05-16T01:27:04;10.60;65.10
78886;DHT22;68269;52.514;5.722;2023-05-16T01:29:34;10.60;65.10
78886;DHT22;68269;52.514;5.722;2023-05-16T01:32:04;10.50;65.10
78886;DHT22;68269;52.514;5.722;2023-05-16T01:34:33;10.50;65.10
78886;DHT22;68269;52.514;5.722;2023-05-16T01:37:11;10.50;65.10
78886;DHT22;68269;52.514;5.722;2023-05-16T01:39:46;10.50;65.10
78886;DHT22;68269;52.514;5.722;2023-05-16T01:42:20;10.50;65.10
78886;DHT22;68269;52.514;5.722;2023-05-16T01:44:58;10.50;65.10
78886;DHT22;68269;52.514;5.722;2023-05-16T01:47:29;10.50;65.10
78886;DHT22;68269;52.514;5.722;2023-05-16T01:50:05;10.40;65.10
78886;DHT22;68269;52.514;5.722;2023-05-16T01:52:40;10.40;65.20
78886;DHT22;68269;52.514;5.722;2023-05-16T01:55:15;10.40;65.20
78886;DHT22;68269;52.514;5.722;2023-05-16T01:57:51;10.40;65.20
78886;DHT22;68269;52.514;5.722;2023-05-16T02:00:21;10.30;65.20
78886;DHT22;68269;52.514;5.722;2023-05-16T02:02:51;10.30;65.20
78886;DHT22;68269;52.514;5.722;2023-05-16T02:05:20;10.30;65.20
78886;DHT22;68269;52.514;5.722;2023-05-16T02:07:50;10.40;65.20
78886;DHT22;68269;52.514;5.722;2023-05-16T02:10:19;10.30;65.20
78886;DHT22;68269;52.514;5.722;2023-05-16T02:12:52;10.30;65.20
78886;DHT22;68269;52.514;5.722;2023-05-16T02:15:22;10.30;65.20
78886;DHT22;68269;52.514;5.722;2023-05-16T02:17:51;10.30;65.20
78886;DHT22;68269;52.514;5.722;2023-05-16T02:20:21;10.30;65.20
78886;DHT22;68269;52.514;5.722;2023-05-16T02:22:50;10.30;65.20
78886;DHT22;68269;52.514;5.722;2023-05-16T02:25:19;10.30;65.20
78886;DHT22;68269;52.514;5.722;2023-05-16T02:27:51;10.30;65.10
78886;DHT22;68269;52.514;5.722;2023-05-16T02:30:20;10.30;65.20
78886;DHT22;68269;52.514;5.722;2023-05-16T02:32:50;10.30;65.20
78886;DHT22;68269;52.514;5.722;2023-05-16T02:35:19;10.30;65.20
78886;DHT22;68269;52.514;5.722;2023-05-16T02:37:48;10.30;65.20
78886;DHT22;68269;52.514;5.722;2023-05-16T02:40:18;10.30;65.30
78886;DHT22;68269;52.514;5.722;2023-05-16T02:42:47;10.30;65.30
78886;DHT22;68269;52.514;5.722;2023-05-16T02:45:19;10.30;65.30
78886;DHT22;68269;52.514;5.722;2023-05-16T02:47:50;10.30;65.30
78886;DHT22;68269;52.514;5.722;2023-05-16T02:50:19;10.30;65.30
78886;DHT22;68269;52.514;5.722;2023-05-16T02:52:49;10.30;65.30
78886;DHT22;68269;52.514;5.722;2023-05-16T02:55:18;10.30;65.30
78886;DHT22;68269;52.514;5.722;2023-05-16T02:57:47;10.30;65.30
78886;DHT22;68269;52.514;5.722;2023-05-16T03:00:20;10.30;65.30
78886;DHT22;68269;52.514;5.722;2023-05-16T03:02:49;10.30;65.30
78886;DHT22;68269;52.514;5.722;2023-05-16T03:05:19;10.30;65.30
78886;DHT22;68269;52.514;5.722;2023-05-16T03:07:48;10.30;65.30
78886;DHT22;68269;52.514;5.722;2023-05-16T03:10:17;10.30;65.30
78886;DHT22;68269;52.514;5.722;2023-05-16T03:12:46;10.30;65.30
78886;DHT22;68269;52.514;5.722;2023-05-16T03:15:16;10.30;65.30
78886;DHT22;68269;52.514;5.722;2023-05-16T03:17:48;10.40;65.30
78886;DHT22;68269;52.514;5.722;2023-05-16T03:20:18;10.40;65.30
78886;DHT22;68269;52.514;5.722;2023-05-16T03:22:47;10.40;65.20
78886;DHT22;68269;52.514;5.722;2023-05-16T03:25:17;10.40;65.30
78886;DHT22;68269;52.514;5.722;2023-05-16T03:27:46;10.40;65.20
78886;DHT22;68269;52.514;5.722;2023-05-16T03:30:18;10.50;65.30
78886;DHT22;68269;52.514;5.722;2023-05-16T03:32:51;10.50;65.20
78886;DHT22;68269;52.514;5.722;2023-05-16T03:35:21;10.50;65.20
78886;DHT22;68269;52.514;5.722;2023-05-16T03:37:50;10.50;65.20
78886;DHT22;68269;52.514;5.722;2023-05-16T03:40:20;10.50;65.20
78886;DHT22;68269;52.514;5.722;2023-05-16T03:42:49;10.60;65.30
78886;DHT22;68269;52.514;5.722;2023-05-16T03:45:18;10.60;65.20
78886;DHT22;68269;52.514;5.722;2023-05-16T03:47:50;10.60;65.20
78886;DHT22;68269;52.514;5.722;2023-05-16T03:50:20;10.60;65.20
78886;DHT22;68269;52.514;5.722;2023-05-16T03:52:49;10.60;65.20
78886;DHT22;68269;52.514;5.722;2023-05-16T03:55:19;10.50;65.30
78886;DHT22;68269;52.514;5.722;2023-05-16T03:57:48;10.50;65.30
78886;DHT22;68269;52.514;5.722;2023-05-16T04:00:18;10.50;65.30
78886;DHT22;68269;52.514;5.722;2023-05-16T04:02:50;10.50;65.30
78886;DHT22;68269;52.514;5.722;2023-05-16T04:05:19;10.50;65.30
78886;DHT22;68269;52.514;5.722;2023-05-16T04:07:49;10.50;65.30
78886;DHT22;68269;52.514;5.722;2023-05-16T04:10:18;10.40;65.40
78886;DHT22;68269;52.514;5.722;2023-05-16T04:12:47;10.40;65.40
78886;DHT22;68269;52.514;5.722;2023-05-16T04:15:17;10.40;65.40
78886;DHT22;68269;52.514;5.722;2023-05-16T04:17:46;10.40;65.40
78886;DHT22;68269;52.514;5.722;2023-05-16T04:20:18;10.40;65.40
78886;DHT22;68269;52.514;5.722;2023-05-16T04:22:48;10.30;65.30
78886;DHT22;68269;52.514;5.722;2023-05-16T04:25:17;10.40;65.30
78886;DHT22;68269;52.514;5.722;2023-05-16T04:27:46;10.40;65.30
78886;DHT22;68269;52.514;5.722;2023-05-16T04:30:16;10.40;65.30
78886;DHT22;68269;52.514;5.722;2023-05-16T04:32:45;10.50;65.20
78886;DHT22;68269;52.514;5.722;2023-05-16T04:35:14;10.60;65.20
78886;DHT22;68269;52.514;5.722;2023-05-16T04:37:46;10.60;65.20
78886;DHT22;68269;52.514;5.722;2023-05-16T04:40:16;10.70;65.10
78886;DHT22;68269;52.514;5.722;2023-05-16T04:42:46;10.80;65.10
78886;DHT22;68269;52.514;5.722;2023-05-16T04:45:16;10.80;65.10
78886;DHT22;68269;52.514;5.722;2023-05-16T04:47:46;10.90;65.00
78886;DHT22;68269;52.514;5.722;2023-05-16T04:50:16;11.00;65.00
78886;DHT22;68269;52.514;5.722;2023-05-16T04:52:48;11.00;65.00
78886;DHT22;68269;52.514;5.722;2023-05-16T04:55:17;11.10;65.00
78886;DHT22;68269;52.514;5.722;2023-05-16T04:57:46;11.10;65.00
78886;DHT22;68269;52.514;5.722;2023-05-16T05:00:16;11.10;64.90
78886;DHT22;68269;52.514;5.722;2023-05-16T05:02:46;11.10;64.90
78886;DHT22;68269;52.514;5.722;2023-05-16T05:05:15;11.20;64.90
78886;DHT22;68269;52.514;5.722;2023-05-16T05:07:44;11.30;64.80
78886;DHT22;68269;52.514;5.722;2023-05-16T05:10:16;11.30;64.80
78886;DHT22;68269;52.514;5.722;2023-05-16T05:12:46;11.40;64.70
78886;DHT22;68269;52.514;5.722;2023-05-16T05:15:15;11.40;64.70
78886;DHT22;68269;52.514;5.722;2023-05-16T05:17:44;11.50;64.70
78886;DHT22;68269;52.514;5.722;2023-05-16T05:20:14;11.50;64.70
78886;DHT22;68269;52.514;5.722;2023-05-16T05:22:43;11.50;64.70
78886;DHT22;68269;52.514;5.722;2023-05-16T05:25:15;11.50;64.60
78886;DHT22;68269;52.514;5.722;2023-05-16T05:27:45;11.60;64.60
78886;DHT22;68269;52.514;5.722;2023-05-16T05:30:14;11.70;64.50
78886;DHT22;68269;52.514;5.722;2023-05-16T05:32:43;11.70;64.40
78886;DHT22;68269;52.514;5.722;2023-05-16T05:35:13;11.80;64.40
78886;DHT22;68269;52.514;5.722;2023-05-16T05:37:42;11.90;64.40
78886;DHT22;68269;52.514;5.722;2023-05-16T05:40:13;11.90;64.30
78886;DHT22;68269;52.514;5.722;2023-05-16T05:42:45;12.00;64.20
78886;DHT22;68269;52.514;5.722;2023-05-16T05:45:14;12.10;64.20
78886;DHT22;68269;52.514;5.722;2023-05-16T05:47:44;12.20;64.00
78886;DHT22;68269;52.514;5.722;2023-05-16T05:50:14;12.20;63.90
78886;DHT22;68269;52.514;5.722;2023-05-16T05:52:43;12.30;63.80
78886;DHT22;68269;52.514;5.722;2023-05-16T05:55:12;12.40;63.60
78886;DHT22;68269;52.514;5.722;2023-05-16T05:57:44;12.50;63.50
78886;DHT22;68269;52.514;5.722;2023-05-16T06:00:14;12.50;63.40
78886;DHT22;68269;52.514;5.722;2023-05-16T06:02:43;12.50;63.30
78886;DHT22;68269;52.514;5.722;2023-05-16T06:05:13;12.50;63.30
78886;DHT22;68269;52.514;5.722;2023-05-16T06:07:42;12.50;63.20
78886;DHT22;68269;52.514;5.722;2023-05-16T06:10:11;12.50;63.20
78886;DHT22;68269;52.514;5.722;2023-05-16T06:12:43;12.50;63.20
78886;DHT22;68269;52.514;5.722;2023-05-16T06:15:13;12.50;63.20
78886;DHT22;68269;52.514;5.722;2023-05-16T06:17:42;12.50;63.20
78886;DHT22;68269;52.514;5.722;2023-05-16T06:20:12;12.50;63.20
78886;DHT22;68269;52.514;5.722;2023-05-16T06:22:41;12.50;63.20
78886;DHT22;68269;52.514;5.722;2023-05-16T06:25:10;12.40;63.20
78886;DHT22;68269;52.514;5.722;2023-05-16T06:27:40;12.40;63.20
78886;DHT22;68269;52.514;5.722;2023-05-16T06:30:12;12.30;63.20
78886;DHT22;68269;52.514;5.722;2023-05-16T06:32:41;12.30;63.30
78886;DHT22;68269;52.514;5.722;2023-05-16T06:35:11;12.20;63.30
78886;DHT22;68269;52.514;5.722;2023-05-16T06:37:40;12.20;63.30
78886;DHT22;68269;52.514;5.722;2023-05-16T06:40:10;12.20;63.30
78886;DHT22;68269;52.514;5.722;2023-05-16T06:42:39;12.20;63.30
78886;DHT22;68269;52.514;5.722;2023-05-16T06:45:11;12.10;63.20
78886;DHT22;68269;52.514;5.722;2023-05-16T06:47:41;12.20;63.10
78886;DHT22;68269;52.514;5.722;2023-05-16T06:50:10;12.20;63.00
78886;DHT22;68269;52.514;5.722;2023-05-16T06:52:40;12.30;62.70
78886;DHT22;68269;52.514;5.722;2023-05-16T06:55:10;12.30;62.60
78886;DHT22;68269;52.514;5.722;2023-05-16T06:57:39;12.30;62.60
78886;DHT22;68269;52.514;5.722;2023-05-16T07:00:12;12.30;62.50
78886;DHT22;68269;52.514;5.722;2023-05-16T07:02:41;12.40;62.50
78886;DHT22;68269;52.514;5.722;2023-05-16T07:05:10;12.50;62.40
78886;DHT22;68269;52.514;5.722;2023-05-16T07:07:39;12.50;62.40
78886;DHT22;68269;52.514;5.722;2023-05-16T07:10:10;12.50;62.20
78886;DHT22;68269;52.514;5.722;2023-05-16T07:12:40;12.70;62.20
78886;DHT22;68269;52.514;5.722;2023-05-16T07:15:12;12.80;62.20
78886;DHT22;68269;52.514;5.722;2023-05-16T07:17:42;12.80;62.20
78886;DHT22;68269;52.514;5.722;2023-05-16T07:20:11;12.80;62.30
78886;DHT22;68269;52.514;5.722;2023-05-16T07:22:41;12.70;62.50
78886;DHT22;68269;52.514;5.722;2023-05-16T07:25:10;12.60;62.60
78886;DHT22;68269;52.514;5.722;2023-05-16T07:27:41;12.60;62.70
78886;DHT22;68269;52.514;5.722;2023-05-16T07:30:13;12.50;62.70
78886;DHT22;68269;52.514;5.722;2023-05-16T07:32:43;12.50;62.80
78886;DHT22;68269;52.514;5.722;2023-05-16T07:35:12;12.50;62.80
78886;DHT22;68269;52.514;5.722;2023-05-16T07:37:42;12.60;62.70
78886;DHT22;68269;52.514;5.722;2023-05-16T07:40:12;12.70;62.50
78886;DHT22;68269;52.514;5.722;2023-05-16T07:42:43;12.90;62.30
78886;DHT22;68269;52.514;5.722;2023-05-16T07:45:15;13.00;62.20
78886;DHT22;68269;52.514;5.722;2023-05-16T07:47:44;13.00;62.10
78886;DHT22;68269;52.514;5.722;2023-05-16T07:50:14;13.00;62.10
78886;DHT22;68269;52.514;5.722;2023-05-16T07:52:43;12.90;62.10
78886;DHT22;68269;52.514;5.722;2023-05-16T07:55:12;12.80;62.30
78886;DHT22;68269;52.514;5.722;2023-05-16T07:57:42;12.80;62.40
78886;DHT22;68269;52.514;5.722;2023-05-16T08:00:15;12.60;62.50
78886;DHT22;68269;52.514;5.722;2023-05-16T08:02:44;12.50;62.70
78886;DHT22;68269;52.514;5.722;2023-05-16T08:05:14;12.50;62.80
78886;DHT22;68269;52.514;5.722;2023-05-16T08:07:43;12.50;62.90
78886;DHT22;68269;52.514;5.722;2023-05-16T08:10:12;12.50;62.90
78886;DHT22;68269;52.514;5.722;2023-05-16T08:12:42;12.50;62.80
78886;DHT22;68269;52.514;5.722;2023-05-16T08:15:11;12.50;62.70
78886;DHT22;68269;52.514;5.722;2023-05-16T08:17:43;12.50;62.50
78886;DHT22;68269;52.514;5.722;2023-05-16T08:20:12;12.70;62.30
78886;DHT22;68269;52.514;5.722;2023-05-16T08:22:41;12.80;62.20
78886;DHT22;68269;52.514;5.722;2023-05-16T08:25:11;13.00;62.10
78886;DHT22;68269;52.514;5.722;2023-05-16T08:27:40;13.10;62.00
78886;DHT22;68269;52.514;5.722;2023-05-16T08:30:11;13.30;61.80
78886;DHT22;68269;52.514;5.722;2023-05-16T08:32:43;13.50;61.70
78886;DHT22;68269;52.514;5.722;2023-05-16T08:35:12;13.50;61.70
78886;DHT22;68269;52.514;5.722;2023-05-16T08:37:42;13.40;61.90
78886;DHT22;68269;52.514;5.722;2023-05-16T08:40:12;13.30;62.00
78886;DHT22;68269;52.514;5.722;2023-05-16T08:42:41;13.30;62.10
78886;DHT22;68269;52.514;5.722;2023-05-16T08:45:11;13.30;62.10
78886;DHT22;68269;52.514;5.722;2023-05-16T08:47:44;13.30;62.00
78886;DHT22;68269;52.514;5.722;2023-05-16T08:50:15;13.30;61.90
78886;DHT22;68269;52.514;5.722;2023-05-16T08:52:46;13.30;61.80
78886;DHT22;68269;52.514;5.722;2023-05-16T08:55:16;13.50;61.50
78886;DHT22;68269;52.514;5.722;2023-05-16T08:57:48;13.60;61.40
78886;DHT22;68269;52.514;5.722;2023-05-16T09:00:18;13.70;61.10
78886;DHT22;68269;52.514;5.722;2023-05-16T09:02:50;13.90;61.00
78886;DHT22;68269;52.514;5.722;2023-05-16T09:05:21;13.90;60.90
78886;DHT22;68269;52.514;5.722;2023-05-16T09:07:51;14.00;60.90
78886;DHT22;68269;52.514;5.722;2023-05-16T09:10:20;14.10;60.80
78886;DHT22;68269;52.514;5.722;2023-05-16T09:12:49;14.20;60.70
78886;DHT22;68269;52.514;5.722;2023-05-16T09:15:19;14.30;60.70
78886;DHT22;68269;52.514;5.722;2023-05-16T09:17:51;14.50;60.50
78886;DHT22;68269;52.514;5.722;2023-05-16T09:20:20;14.60;60.40
78886;DHT22;68269;52.514;5.722;2023-05-16T09:22:50;14.80;60.30
78886;DHT22;68269;52.514;5.722;2023-05-16T09:25:22;14.90;60.10
78886;DHT22;68269;52.514;5.722;2023-05-16T09:27:52;15.10;60.00
78886;DHT22;68269;52.514;5.722;2023-05-16T09:30:22;15.30;59.80
78886;DHT22;68269;52.514;5.722;2023-05-16T09:32:58;15.40;59.80
78886;DHT22;68269;52.514;5.722;2023-05-16T09:35:27;15.50;59.80
78886;DHT22;68269;52.514;5.722;2023-05-16T09:37:56;15.50;59.80
78886;DHT22;68269;52.514;5.722;2023-05-16T09:40:26;15.40;60.00
78886;DHT22;68269;52.514;5.722;2023-05-16T09:43:02;15.40;60.00
78886;DHT22;68269;52.514;5.722;2023-05-16T09:45:33;15.30;60.00
78886;DHT22;68269;52.514;5.722;2023-05-16T09:48:06;15.40;59.90
78886;DHT22;68269;52.514;5.722;2023-05-16T09:50:38;15.50;59.60
78886;DHT22;68269;52.514;5.722;2023-05-16T09:53:08;15.50;59.50
78886;DHT22;68269;52.514;5.722;2023-05-16T09:55:37;15.50;59.50
78886;DHT22;68269;52.514;5.722;2023-05-16T09:58:07;15.50;59.40
78886;DHT22;68269;52.514;5.722;2023-05-16T10:00:36;15.50;59.40
78886;DHT22;68269;52.514;5.722;2023-05-16T10:03:09;15.60;59.30
78886;DHT22;68269;52.514;5.722;2023-05-16T10:05:39;15.80;59.00
78886;DHT22;68269;52.514;5.722;2023-05-16T10:08:09;16.00;58.70
78886;DHT22;68269;52.514;5.722;2023-05-16T10:10:39;16.10;58.40
78886;DHT22;68269;52.514;5.722;2023-05-16T10:13:10;16.20;58.10
78886;DHT22;68269;52.514;5.722;2023-05-16T10:15:41;16.00;58.20
78886;DHT22;68269;52.514;5.722;2023-05-16T10:18:13;15.80;58.50
78886;DHT22;68269;52.514;5.722;2023-05-16T10:20:46;16.00;58.50
78886;DHT22;68269;52.514;5.722;2023-05-16T10:23:19;16.10;58.20
78886;DHT22;68269;52.514;5.722;2023-05-16T10:25:48;16.10;58.10
78886;DHT22;68269;52.514;5.722;2023-05-16T10:28:18;16.20;57.90
78886;DHT22;68269;52.514;5.722;2023-05-16T10:30:47;16.20;57.90
78886;DHT22;68269;52.514;5.722;2023-05-16T10:33:19;16.40;57.70
78886;DHT22;68269;52.514;5.722;2023-05-16T10:35:48;16.50;57.50
78886;DHT22;68269;52.514;5.722;2023-05-16T10:38:19;16.70;57.30
78886;DHT22;68269;52.514;5.722;2023-05-16T10:40:49;16.70;57.30
78886;DHT22;68269;52.514;5.722;2023-05-16T10:43:23;16.70;57.20
78886;DHT22;68269;52.514;5.722;2023-05-16T10:45:54;16.80;57.00
78886;DHT22;68269;52.514;5.722;2023-05-16T10:48:34;16.90;56.80
78886;DHT22;68269;52.514;5.722;2023-05-16T10:51:34;16.80;56.80
78886;DHT22;68269;52.514;5.722;2023-05-16T10:54:04;16.80;57.10
78886;DHT22;68269;52.514;5.722;2023-05-16T10:56:35;16.60;57.30
78886;DHT22;68269;52.514;5.722;2023-05-16T10:59:21;16.70;57.20
78886;DHT22;68269;52.514;5.722;2023-05-16T11:01:53;16.90;56.90
78886;DHT22;68269;52.514;5.722;2023-05-16T11:04:44;17.00;56.90
78886;DHT22;68269;52.514;5.722;2023-05-16T11:07:16;17.10;56.60
78886;DHT22;68269;52.514;5.722;2023-05-16T11:09:52;17.20;56.70
78886;DHT22;68269;52.514;5.722;2023-05-16T11:12:37;17.20;56.70
78886;DHT22;68269;52.514;5.722;2023-05-16T11:15:22;17.20;56.80
78886;DHT22;68269;52.514;5.722;2023-05-16T11:18:03;17.20;56.60
78886;DHT22;68269;52.514;5.722;2023-05-16T11:20:36;17.30;56.50
78886;DHT22;68269;52.514;5.722;2023-05-16T11:23:22;17.50;56.20
78886;DHT22;68269;52.514;5.722;2023-05-16T11:25:54;17.70;56.10
78886;DHT22;68269;52.514;5.722;2023-05-16T11:28:25;17.60;56.20
78886;DHT22;68269;52.514;5.722;2023-05-16T11:30:57;17.70;56.40
78886;DHT22;68269;52.514;5.722;2023-05-16T11:33:30;17.80;56.40
78886;DHT22;68269;52.514;5.722;2023-05-16T11:36:05;17.80;56.50
78886;DHT22;68269;52.514;5.722;2023-05-16T11:38:35;17.90;56.30
78886;DHT22;68269;52.514;5.722;2023-05-16T11:41:08;17.80;56.40
78886;DHT22;68269;52.514;5.722;2023-05-16T11:43:41;18.00;56.10
78886;DHT22;68269;52.514;5.722;2023-05-16T11:46:11;18.10;55.70
78886;DHT22;68269;52.514;5.722;2023-05-16T11:48:41;18.10;55.70
78886;DHT22;68269;52.514;5.722;2023-05-16T11:51:17;18.10;55.70
78886;DHT22;68269;52.514;5.722;2023-05-16T11:53:47;18.10;55.70
78886;DHT22;68269;52.514;5.722;2023-05-16T11:56:16;18.20;55.50
78886;DHT22;68269;52.514;5.722;2023-05-16T11:58:47;18.20;55.50
78886;DHT22;68269;52.514;5.722;2023-05-16T12:01:17;18.30;55.30
78886;DHT22;68269;52.514;5.722;2023-05-16T12:03:54;18.20;55.20
78886;DHT22;68269;52.514;5.722;2023-05-16T12:06:26;18.10;55.20
78886;DHT22;68269;52.514;5.722;2023-05-16T12:08:56;18.20;55.30
78886;DHT22;68269;52.514;5.722;2023-05-16T12:11:28;18.20;55.30
78886;DHT22;68269;52.514;5.722;2023-05-16T12:13:58;18.00;55.40
78886;DHT22;68269;52.514;5.722;2023-05-16T12:16:27;17.90;55.50
78886;DHT22;68269;52.514;5.722;2023-05-16T12:18:57;17.70;55.70
78886;DHT22;68269;52.514;5.722;2023-05-16T12:21:30;17.50;55.90
78886;DHT22;68269;52.514;5.722;2023-05-16T12:23:59;17.50;55.80
78886;DHT22;68269;52.514;5.722;2023-05-16T12:26:29;17.50;55.70
78886;DHT22;68269;52.514;5.722;2023-05-16T12:28:59;17.50;55.70
78886;DHT22;68269;52.514;5.722;2023-05-16T12:31:34;17.80;55.50
78886;DHT22;68269;52.514;5.722;2023-05-16T12:34:04;18.00;55.10
78886;DHT22;68269;52.514;5.722;2023-05-16T12:36:36;18.00;55.00
78886;DHT22;68269;52.514;5.722;2023-05-16T12:39:05;17.90;55.00
78886;DHT22;68269;52.514;5.722;2023-05-16T12:41:39;17.60;55.30
78886;DHT22;68269;52.514;5.722;2023-05-16T12:44:13;17.40;55.50
78886;DHT22;68269;52.514;5.722;2023-05-16T12:46:43;17.20;55.60
78886;DHT22;68269;52.514;5.722;2023-05-16T12:49:13;17.50;55.40
78886;DHT22;68269;52.514;5.722;2023-05-16T12:51:50;17.70;55.20
78886;DHT22;68269;52.514;5.722;2023-05-16T12:54:20;17.80;55.00
78886;DHT22;68269;52.514;5.722;2023-05-16T12:56:50;17.80;55.00
78886;DHT22;68269;52.514;5.722;2023-05-16T12:59:19;17.60;55.00
78886;DHT22;68269;52.514;5.722;2023-05-16T13:01:49;17.50;55.20
78886;DHT22;68269;52.514;5.722;2023-05-16T13:04:18;17.50;55.30
78886;DHT22;68269;52.514;5.722;2023-05-16T13:06:51;17.50;55.20
78886;DHT22;68269;52.514;5.722;2023-05-16T13:09:20;17.30;55.10
78886;DHT22;68269;52.514;5.722;2023-05-16T13:11:49;17.10;55.30
78886;DHT22;68269;52.514;5.722;2023-05-16T13:14:19;17.00;55.30
78886;DHT22;68269;52.514;5.722;2023-05-16T13:16:48;16.80;55.40
78886;DHT22;68269;52.514;5.722;2023-05-16T13:19:17;16.70;55.50
78886;DHT22;68269;52.514;5.722;2023-05-16T13:21:50;16.60;55.50
78886;DHT22;68269;52.514;5.722;2023-05-16T13:24:20;16.40;55.70
78886;DHT22;68269;52.514;5.722;2023-05-16T13:26:49;16.40;55.80
78886;DHT22;68269;52.514;5.722;2023-05-16T13:29:18;16.30;55.80
78886;DHT22;68269;52.514;5.722;2023-05-16T13:31:48;16.30;55.80
78886;DHT22;68269;52.514;5.722;2023-05-16T13:34:17;16.20;55.80
78886;DHT22;68269;52.514;5.722;2023-05-16T13:36:46;16.20;55.70
78886;DHT22;68269;52.514;5.722;2023-05-16T13:39:18;16.20;55.70
78886;DHT22;68269;52.514;5.722;2023-05-16T13:41:47;16.30;55.70
78886;DHT22;68269;52.514;5.722;2023-05-16T13:44:17;16.30;55.70
78886;DHT22;68269;52.514;5.722;2023-05-16T13:46:47;16.40;55.70
78886;DHT22;68269;52.514;5.722;2023-05-16T13:49:16;16.50;55.50
78886;DHT22;68269;52.514;5.722;2023-05-16T13:51:46;16.50;55.50
78886;DHT22;68269;52.514;5.722;2023-05-16T13:54:17;16.50;55.50
78886;DHT22;68269;52.514;5.722;2023-05-16T13:56:48;16.50;55.50
78886;DHT22;68269;52.514;5.722;2023-05-16T13:59:17;16.90;55.20
78886;DHT22;68269;52.514;5.722;2023-05-16T14:01:46;17.30;54.80
78886;DHT22;68269;52.514;5.722;2023-05-16T14:04:16;17.50;54.60
78886;DHT22;68269;52.514;5.722;2023-05-16T14:06:45;17.80;54.50
78886;DHT22;68269;52.514;5.722;2023-05-16T14:09:14;18.00;54.40
78886;DHT22;68269;52.514;5.722;2023-05-16T14:11:46;18.00;54.40
78886;DHT22;68269;52.514;5.722;2023-05-16T14:14:15;18.00;54.60
78886;DHT22;68269;52.514;5.722;2023-05-16T14:16:45;18.00;54.60
78886;DHT22;68269;52.514;5.722;2023-05-16T14:19:14;18.00;54.60
78886;DHT22;68269;52.514;5.722;2023-05-16T14:21:43;18.00;54.50
78886;DHT22;68269;52.514;5.722;2023-05-16T14:24:12;18.00;54.60
78886;DHT22;68269;52.514;5.722;2023-05-16T14:26:42;18.10;54.40
78886;DHT22;68269;52.514;5.722;2023-05-16T14:29:14;18.20;54.30
78886;DHT22;68269;52.514;5.722;2023-05-16T14:31:43;18.10;54.20
78886;DHT22;68269;52.514;5.722;2023-05-16T14:34:12;18.00;54.30
78886;DHT22;68269;52.514;5.722;2023-05-16T14:36:41;17.80;54.40
78886;DHT22;68269;52.514;5.722;2023-05-16T14:39:11;17.70;54.40
78886;DHT22;68269;52.514;5.722;2023-05-16T14:41:40;17.60;54.30
78886;DHT22;68269;52.514;5.722;2023-05-16T14:44:10;17.50;54.30
78886;DHT22;68269;52.514;5.722;2023-05-16T14:46:41;17.50;54.40
78886;DHT22;68269;52.514;5.722;2023-05-16T14:49:11;17.30;54.40
78886;DHT22;68269;52.514;5.722;2023-05-16T14:51:41;17.20;54.40
78886;DHT22;68269;52.514;5.722;2023-05-16T14:54:14;17.10;54.40
78886;DHT22;68269;52.514;5.722;2023-05-16T14:56:44;17.00;54.50
78886;DHT22;68269;52.514;5.722;2023-05-16T14:59:13;16.90;54.60
78886;DHT22;68269;52.514;5.722;2023-05-16T15:01:45;16.80;54.70
78886;DHT22;68269;52.514;5.722;2023-05-16T15:04:14;16.80;54.70
78886;DHT22;68269;52.514;5.722;2023-05-16T15:06:43;16.70;54.70
78886;DHT22;68269;52.514;5.722;2023-05-16T15:09:13;16.60;54.60
78886;DHT22;68269;52.514;5.722;2023-05-16T15:11:42;16.60;54.50
78886;DHT22;68269;52.514;5.722;2023-05-16T15:14:12;16.60;54.50
78886;DHT22;68269;52.514;5.722;2023-05-16T15:16:41;16.50;54.50
78886;DHT22;68269;52.514;5.722;2023-05-16T15:19:14;16.50;54.40
78886;DHT22;68269;52.514;5.722;2023-05-16T15:21:44;16.40;54.50
78886;DHT22;68269;52.514;5.722;2023-05-16T15:24:13;16.40;54.50
78886;DHT22;68269;52.514;5.722;2023-05-16T15:26:43;16.20;54.50
78886;DHT22;68269;52.514;5.722;2023-05-16T15:29:12;16.20;54.60
78886;DHT22;68269;52.514;5.722;2023-05-16T15:31:42;16.10;54.60
78886;DHT22;68269;52.514;5.722;2023-05-16T15:34:17;16.10;54.60
78886;DHT22;68269;52.514;5.722;2023-05-16T15:36:46;16.10;54.50
78886;DHT22;68269;52.514;5.722;2023-05-16T15:39:15;16.00;54.60
78886;DHT22;68269;52.514;5.722;2023-05-16T15:41:45;16.00;54.70
78886;DHT22;68269;52.514;5.722;2023-05-16T15:44:14;16.00;54.60
78886;DHT22;68269;52.514;5.722;2023-05-16T15:46:43;16.00;54.50
78886;DHT22;68269;52.514;5.722;2023-05-16T15:49:12;16.00;54.60
78886;DHT22;68269;52.514;5.722;2023-05-16T15:51:44;16.00;54.60